Fish Camp, California
Current Conditions -  °F | °C
As of 5:53 PM on Sunday 25 Jan 2015 (Local Time) from KMAE Reporting Station
Haze Haze  
Wind Chill: 39°   Ceiling: Unl
Heat Index: 43°   Visibility: 5mi
Dew Point: 38°   Wind: 6mph
Humidity: 82%   Direction: 240°WSW
Pressure: 30.08"   Gusts: NA
Location:  37.48°N, 119.64°W
Report Text: KMAE 260153Z AUTO 24005KT 5SM HZ CLR 06/03 A3008 RMK AO2 SLP186 T00610033
Loading
Personal Weather Stations






























Interactive Weather Map New forecast layout! Learn more

10-Day Weather Forecast

Advertisements
Track Severe Weather on mobile